sensor_id;sensor_type;location;lat;lon;timestamp;P1;durP1;ratioP1;P2;durP2;ratioP2
28130;SDS011;15418;42.634;23.374;2022-07-06T06:48:42;17.55;;;10.32;;
28130;SDS011;15418;42.634;23.374;2022-07-06T06:51:08;17.75;;;12.52;;
28130;SDS011;15418;42.634;23.374;2022-07-06T06:53:33;17.20;;;11.82;;
28130;SDS011;15418;42.634;23.374;2022-07-06T06:55:59;23.13;;;15.02;;
28130;SDS011;15418;42.634;23.374;2022-07-06T06:58:24;20.05;;;13.15;;
28130;SDS011;15418;42.634;23.374;2022-07-06T07:00:56;19.70;;;14.23;;
28130;SDS011;15418;42.634;23.374;2022-07-06T07:03:24;22.98;;;15.77;;
28130;SDS011;15418;42.634;23.374;2022-07-06T07:05:50;27.88;;;14.90;;
28130;SDS011;15418;42.634;23.374;2022-07-06T07:08:15;25.05;;;13.20;;
28130;SDS011;15418;42.634;23.374;2022-07-06T07:10:42;23.73;;;14.52;;
28130;SDS011;15418;42.634;23.374;2022-07-06T07:13:08;20.48;;;12.07;;
28130;SDS011;15418;42.634;23.374;2022-07-06T07:15:33;19.30;;;11.93;;
28130;SDS011;15418;42.634;23.374;2022-07-06T07:17:59;24.50;;;12.00;;
28130;SDS011;15418;42.634;23.374;2022-07-06T07:20:24;34.28;;;12.15;;
28130;SDS011;15418;42.634;23.374;2022-07-06T07:22:52;18.17;;;11.60;;
28130;SDS011;15418;42.634;23.374;2022-07-06T07:25:18;33.42;;;12.90;;
28130;SDS011;15418;42.634;23.374;2022-07-06T07:27:46;19.23;;;12.18;;
28130;SDS011;15418;42.634;23.374;2022-07-06T07:30:11;18.55;;;12.45;;
28130;SDS011;15418;42.634;23.374;2022-07-06T07:32:37;24.92;;;13.45;;
28130;SDS011;15418;42.634;23.374;2022-07-06T07:35:08;16.38;;;13.25;;
28130;SDS011;15418;42.634;23.374;2022-07-06T07:37:34;20.05;;;13.20;;
28130;SDS011;15418;42.634;23.374;2022-07-06T07:40:00;20.23;;;13.93;;
28130;SDS011;15418;42.634;23.374;2022-07-06T07:42:25;21.23;;;13.32;;
28130;SDS011;15418;42.634;23.374;2022-07-06T07:44:51;20.65;;;13.80;;
28130;SDS011;15418;42.634;23.374;2022-07-06T07:47:17;23.55;;;13.40;;
28130;SDS011;15418;42.634;23.374;2022-07-06T07:49:42;16.08;;;13.82;;
28130;SDS011;15418;42.634;23.374;2022-07-06T07:52:08;25.75;;;13.90;;
28130;SDS011;15418;42.634;23.374;2022-07-06T07:54:34;24.00;;;13.55;;
28130;SDS011;15418;42.634;23.374;2022-07-06T07:56:59;21.33;;;12.43;;
28130;SDS011;15418;42.634;23.374;2022-07-06T07:59:25;23.10;;;12.13;;
28130;SDS011;15418;42.634;23.374;2022-07-06T08:01:50;16.38;;;12.70;;
28130;SDS011;15418;42.634;23.374;2022-07-06T08:04:16;17.67;;;12.40;;
28130;SDS011;15418;42.634;23.374;2022-07-06T08:06:42;16.23;;;12.10;;
28130;SDS011;15418;42.634;23.374;2022-07-06T08:09:07;19.35;;;12.60;;
28130;SDS011;15418;42.634;23.374;2022-07-06T08:11:33;19.08;;;13.13;;
28130;SDS011;15418;42.634;23.374;2022-07-06T08:13:59;16.13;;;11.52;;
28130;SDS011;15418;42.634;23.374;2022-07-06T08:16:25;16.40;;;10.32;;
28130;SDS011;15418;42.634;23.374;2022-07-06T08:18:51;15.80;;;9.90;;
28130;SDS011;15418;42.634;23.374;2022-07-06T08:21:18;12.23;;;9.95;;
28130;SDS011;15418;42.634;23.374;2022-07-06T08:23:44;22.40;;;11.00;;
28130;SDS011;15418;42.634;23.374;2022-07-06T08:26:09;26.50;;;12.57;;
28130;SDS011;15418;42.634;23.374;2022-07-06T08:28:35;20.35;;;12.05;;
28130;SDS011;15418;42.634;23.374;2022-07-06T08:31:00;15.07;;;11.50;;
28130;SDS011;15418;42.634;23.374;2022-07-06T08:33:28;18.88;;;10.63;;
28130;SDS011;15418;42.634;23.374;2022-07-06T08:35:53;15.75;;;10.60;;
28130;SDS011;15418;42.634;23.374;2022-07-06T08:38:19;18.63;;;10.32;;
28130;SDS011;15418;42.634;23.374;2022-07-06T08:40:46;22.75;;;10.88;;
28130;SDS011;15418;42.634;23.374;2022-07-06T08:43:13;21.65;;;10.40;;
28130;SDS011;15418;42.634;23.374;2022-07-06T08:45:40;18.30;;;10.65;;
28130;SDS011;15418;42.634;23.374;2022-07-06T08:48:10;13.73;;;10.23;;
28130;SDS011;15418;42.634;23.374;2022-07-06T08:50:37;14.95;;;10.55;;
28130;SDS011;15418;42.634;23.374;2022-07-06T08:53:03;20.50;;;11.18;;
28130;SDS011;15418;42.634;23.374;2022-07-06T08:55:29;16.88;;;11.23;;
28130;SDS011;15418;42.634;23.374;2022-07-06T08:57:55;19.13;;;11.20;;
28130;SDS011;15418;42.634;23.374;2022-07-06T09:00:22;23.98;;;12.30;;
28130;SDS011;15418;42.634;23.374;2022-07-06T09:02:48;19.38;;;11.68;;
28130;SDS011;15418;42.634;23.374;2022-07-06T09:05:19;19.67;;;10.27;;
28130;SDS011;15418;42.634;23.374;2022-07-06T09:07:53;17.92;;;11.50;;
28130;SDS011;15418;42.634;23.374;2022-07-06T09:10:22;16.02;;;11.65;;
28130;SDS011;15418;42.634;23.374;2022-07-06T09:12:47;16.48;;;12.32;;
28130;SDS011;15418;42.634;23.374;2022-07-06T09:15:13;17.10;;;11.55;;
28130;SDS011;15418;42.634;23.374;2022-07-06T09:17:42;14.10;;;11.05;;
28130;SDS011;15418;42.634;23.374;2022-07-06T09:20:09;14.05;;;10.80;;
28130;SDS011;15418;42.634;23.374;2022-07-06T09:22:45;18.05;;;10.10;;
28130;SDS011;15418;42.634;23.374;2022-07-06T09:25:12;18.50;;;11.93;;
28130;SDS011;15418;42.634;23.374;2022-07-06T09:27:40;17.88;;;12.18;;
28130;SDS011;15418;42.634;23.374;2022-07-06T09:30:15;22.38;;;12.35;;
28130;SDS011;15418;42.634;23.374;2022-07-06T09:32:42;17.77;;;12.35;;
28130;SDS011;15418;42.634;23.374;2022-07-06T09:35:19;16.85;;;11.90;;
28130;SDS011;15418;42.634;23.374;2022-07-06T09:43:33;21.58;;;14.25;;
28130;SDS011;15418;42.634;23.374;2022-07-06T09:45:53;20.85;;;13.65;;
28130;SDS011;15418;42.634;23.374;2022-07-06T09:48:22;18.55;;;13.40;;
28130;SDS011;15418;42.634;23.374;2022-07-06T09:50:55;18.15;;;14.02;;
28130;SDS011;15418;42.634;23.374;2022-07-06T09:53:21;18.13;;;12.50;;
28130;SDS011;15418;42.634;23.374;2022-07-06T09:55:51;20.58;;;13.20;;
28130;SDS011;15418;42.634;23.374;2022-07-06T09:58:23;16.85;;;12.02;;
28130;SDS011;15418;42.634;23.374;2022-07-06T10:00:49;18.45;;;12.85;;
28130;SDS011;15418;42.634;23.374;2022-07-06T10:03:15;19.75;;;13.68;;
28130;SDS011;15418;42.634;23.374;2022-07-06T10:05:43;16.20;;;13.88;;
28130;SDS011;15418;42.634;23.374;2022-07-06T10:08:12;15.40;;;13.02;;
28130;SDS011;15418;42.634;23.374;2022-07-06T10:10:39;17.85;;;14.15;;
28130;SDS011;15418;42.634;23.374;2022-07-06T10:13:05;19.80;;;15.18;;
28130;SDS011;15418;42.634;23.374;2022-07-06T10:15:33;21.08;;;14.82;;
28130;SDS011;15418;42.634;23.374;2022-07-06T10:18:01;16.95;;;13.73;;
28130;SDS011;15418;42.634;23.374;2022-07-06T10:20:29;17.40;;;13.57;;
28130;SDS011;15418;42.634;23.374;2022-07-06T10:22:58;18.52;;;14.52;;
28130;SDS011;15418;42.634;23.374;2022-07-06T10:25:27;21.70;;;15.60;;
28130;SDS011;15418;42.634;23.374;2022-07-06T10:27:53;20.38;;;12.73;;
28130;SDS011;15418;42.634;23.374;2022-07-06T10:30:20;17.45;;;13.70;;
28130;SDS011;15418;42.634;23.374;2022-07-06T10:32:47;16.08;;;14.30;;
28130;SDS011;15418;42.634;23.374;2022-07-06T10:35:15;20.88;;;14.55;;
28130;SDS011;15418;42.634;23.374;2022-07-06T10:37:43;17.58;;;13.52;;
28130;SDS011;15418;42.634;23.374;2022-07-06T10:43:31;21.88;;;15.13;;
28130;SDS011;15418;42.634;23.374;2022-07-06T10:46:27;21.75;;;16.48;;
28130;SDS011;15418;42.634;23.374;2022-07-06T10:48:54;19.40;;;14.88;;
28130;SDS011;15418;42.634;23.374;2022-07-06T10:51:26;22.33;;;14.02;;
28130;SDS011;15418;42.634;23.374;2022-07-06T10:53:56;19.98;;;14.18;;
28130;SDS011;15418;42.634;23.374;2022-07-06T10:56:36;17.55;;;14.35;;
28130;SDS011;15418;42.634;23.374;2022-07-06T10:59:02;27.20;;;15.18;;
28130;SDS011;15418;42.634;23.374;2022-07-06T11:04:55;19.70;;;13.75;;
28130;SDS011;15418;42.634;23.374;2022-07-06T11:07:21;17.77;;;14.27;;
28130;SDS011;15418;42.634;23.374;2022-07-06T11:09:56;18.23;;;14.73;;
28130;SDS011;15418;42.634;23.374;2022-07-06T11:12:22;17.35;;;13.95;;
28130;SDS011;15418;42.634;23.374;2022-07-06T11:14:48;15.18;;;12.90;;
28130;SDS011;15418;42.634;23.374;2022-07-06T11:17:15;18.95;;;14.15;;
28130;SDS011;15418;42.634;23.374;2022-07-06T11:19:50;20.88;;;14.48;;
28130;SDS011;15418;42.634;23.374;2022-07-06T11:22:21;18.92;;;14.93;;
28130;SDS011;15418;42.634;23.374;2022-07-06T11:24:49;23.17;;;14.82;;
28130;SDS011;15418;42.634;23.374;2022-07-06T11:27:16;17.42;;;13.95;;
28130;SDS011;15418;42.634;23.374;2022-07-06T11:29:42;20.13;;;14.68;;
28130;SDS011;15418;42.634;23.374;2022-07-06T11:35:20;20.45;;;14.93;;
28130;SDS011;15418;42.634;23.374;2022-07-06T11:37:46;21.20;;;15.17;;
28130;SDS011;15418;42.634;23.374;2022-07-06T11:40:13;18.23;;;16.00;;
28130;SDS011;15418;42.634;23.374;2022-07-06T11:42:52;22.42;;;14.93;;
28130;SDS011;15418;42.634;23.374;2022-07-06T11:45:25;18.75;;;14.95;;
28130;SDS011;15418;42.634;23.374;2022-07-06T11:48:07;25.13;;;14.85;;
28130;SDS011;15418;42.634;23.374;2022-07-06T11:50:34;17.95;;;15.20;;
28130;SDS011;15418;42.634;23.374;2022-07-06T11:53:00;15.13;;;13.30;;
28130;SDS011;15418;42.634;23.374;2022-07-06T11:55:27;20.38;;;16.13;;
28130;SDS011;15418;42.634;23.374;2022-07-06T11:57:54;17.52;;;14.40;;
28130;SDS011;15418;42.634;23.374;2022-07-06T12:00:22;15.05;;;13.27;;
28130;SDS011;15418;42.634;23.374;2022-07-06T12:03:00;17.13;;;14.32;;
28130;SDS011;15418;42.634;23.374;2022-07-06T12:05:30;15.35;;;13.55;;
28130;SDS011;15418;42.634;23.374;2022-07-06T12:08:05;16.65;;;13.75;;
28130;SDS011;15418;42.634;23.374;2022-07-06T12:10:34;18.65;;;14.77;;
28130;SDS011;15418;42.634;23.374;2022-07-06T12:13:04;20.10;;;14.75;;
28130;SDS011;15418;42.634;23.374;2022-07-06T12:15:29;20.63;;;13.85;;
28130;SDS011;15418;42.634;23.374;2022-07-06T12:17:55;17.20;;;14.93;;
28130;SDS011;15418;42.634;23.374;2022-07-06T12:20:20;16.75;;;15.02;;
28130;SDS011;15418;42.634;23.374;2022-07-06T12:22:46;19.55;;;15.25;;
28130;SDS011;15418;42.634;23.374;2022-07-06T12:25:11;21.13;;;14.13;;
28130;SDS011;15418;42.634;23.374;2022-07-06T12:27:37;19.00;;;14.10;;
28130;SDS011;15418;42.634;23.374;2022-07-06T12:30:09;18.50;;;13.95;;
28130;SDS011;15418;42.634;23.374;2022-07-06T12:32:35;15.03;;;12.13;;
28130;SDS011;15418;42.634;23.374;2022-07-06T12:35:08;19.35;;;12.40;;
28130;SDS011;15418;42.634;23.374;2022-07-06T12:37:34;17.95;;;11.70;;
28130;SDS011;15418;42.634;23.374;2022-07-06T12:40:00;14.27;;;10.68;;
28130;SDS011;15418;42.634;23.374;2022-07-06T12:42:26;13.55;;;10.73;;
28130;SDS011;15418;42.634;23.374;2022-07-06T12:44:53;22.13;;;12.15;;
28130;SDS011;15418;42.634;23.374;2022-07-06T12:47:19;14.68;;;11.57;;
28130;SDS011;15418;42.634;23.374;2022-07-06T12:49:48;13.95;;;10.98;;
28130;SDS011;15418;42.634;23.374;2022-07-06T12:52:29;15.60;;;11.85;;
28130;SDS011;15418;42.634;23.374;2022-07-06T12:54:54;19.27;;;11.25;;
28130;SDS011;15418;42.634;23.374;2022-07-06T12:57:21;13.73;;;11.32;;
28130;SDS011;15418;42.634;23.374;2022-07-06T13:02:26;14.90;;;11.38;;
28130;SDS011;15418;42.634;23.374;2022-07-06T13:04:59;19.92;;;10.75;;
28130;SDS011;15418;42.634;23.374;2022-07-06T13:07:30;14.68;;;8.48;;
28130;SDS011;15418;42.634;23.374;2022-07-06T13:09:57;11.10;;;8.07;;
28130;SDS011;15418;42.634;23.374;2022-07-06T13:12:23;10.20;;;8.02;;
28130;SDS011;15418;42.634;23.374;2022-07-06T13:14:49;10.77;;;8.15;;
28130;SDS011;15418;42.634;23.374;2022-07-06T13:17:16;8.18;;;7.38;;
28130;SDS011;15418;42.634;23.374;2022-07-06T13:19:42;9.55;;;7.28;;
28130;SDS011;15418;42.634;23.374;2022-07-06T13:22:08;9.93;;;7.53;;
28130;SDS011;15418;42.634;23.374;2022-07-06T13:24:33;7.65;;;6.78;;
28130;SDS011;15418;42.634;23.374;2022-07-06T13:26:59;12.98;;;6.97;;
28130;SDS011;15418;42.634;23.374;2022-07-06T13:29:25;10.75;;;6.20;;
28130;SDS011;15418;42.634;23.374;2022-07-06T13:31:50;9.63;;;6.03;;
28130;SDS011;15418;42.634;23.374;2022-07-06T13:34:16;15.18;;;6.97;;
28130;SDS011;15418;42.634;23.374;2022-07-06T13:36:41;6.57;;;5.40;;
28130;SDS011;15418;42.634;23.374;2022-07-06T13:39:07;9.63;;;5.40;;
28130;SDS011;15418;42.634;23.374;2022-07-06T13:41:33;5.70;;;4.28;;
28130;SDS011;15418;42.634;23.374;2022-07-06T13:43:59;5.45;;;4.53;;
28130;SDS011;15418;42.634;23.374;2022-07-06T13:46:28;7.30;;;5.00;;
28130;SDS011;15418;42.634;23.374;2022-07-06T13:48:54;12.25;;;5.50;;
28130;SDS011;15418;42.634;23.374;2022-07-06T13:51:21;6.13;;;5.25;;
28130;SDS011;15418;42.634;23.374;2022-07-06T13:53:47;10.43;;;5.07;;
28130;SDS011;15418;42.634;23.374;2022-07-06T13:56:12;6.55;;;4.57;;
28130;SDS011;15418;42.634;23.374;2022-07-06T13:58:38;4.32;;;3.70;;
28130;SDS011;15418;42.634;23.374;2022-07-06T14:01:03;4.60;;;3.50;;
28130;SDS011;15418;42.634;23.374;2022-07-06T14:03:29;6.80;;;3.45;;
28130;SDS011;15418;42.634;23.374;2022-07-06T14:05:56;7.43;;;3.42;;
28130;SDS011;15418;42.634;23.374;2022-07-06T14:08:23;8.60;;;3.45;;
28130;SDS011;15418;42.634;23.374;2022-07-06T14:10:48;5.80;;;3.10;;
28130;SDS011;15418;42.634;23.374;2022-07-06T14:13:14;4.38;;;3.30;;
28130;SDS011;15418;42.634;23.374;2022-07-06T14:15:39;12.73;;;3.50;;
28130;SDS011;15418;42.634;23.374;2022-07-06T14:18:05;4.55;;;2.72;;
28130;SDS011;15418;42.634;23.374;2022-07-06T14:20:30;7.43;;;2.90;;
28130;SDS011;15418;42.634;23.374;2022-07-06T14:22:56;7.25;;;2.58;;
28130;SDS011;15418;42.634;23.374;2022-07-06T14:25:21;5.43;;;3.28;;
28130;SDS011;15418;42.634;23.374;2022-07-06T14:27:46;6.07;;;2.75;;
28130;SDS011;15418;42.634;23.374;2022-07-06T14:30:12;4.70;;;2.67;;
28130;SDS011;15418;42.634;23.374;2022-07-06T14:32:37;7.70;;;2.58;;
28130;SDS011;15418;42.634;23.374;2022-07-06T14:35:03;6.25;;;2.72;;
28130;SDS011;15418;42.634;23.374;2022-07-06T14:37:29;8.57;;;2.83;;
28130;SDS011;15418;42.634;23.374;2022-07-06T14:39:54;5.10;;;2.60;;
28130;SDS011;15418;42.634;23.374;2022-07-06T14:42:20;4.90;;;2.70;;
28130;SDS011;15418;42.634;23.374;2022-07-06T14:44:45;6.85;;;3.17;;
28130;SDS011;15418;42.634;23.374;2022-07-06T14:47:11;6.18;;;2.70;;
28130;SDS011;15418;42.634;23.374;2022-07-06T14:49:36;8.95;;;2.63;;
28130;SDS011;15418;42.634;23.374;2022-07-06T14:52:02;5.78;;;2.78;;
28130;SDS011;15418;42.634;23.374;2022-07-06T14:54:28;10.90;;;2.85;;
28130;SDS011;15418;42.634;23.374;2022-07-06T14:56:54;6.10;;;2.97;;
28130;SDS011;15418;42.634;23.374;2022-07-06T14:59:19;6.68;;;2.40;;
28130;SDS011;15418;42.634;23.374;2022-07-06T15:01:45;7.55;;;2.83;;
28130;SDS011;15418;42.634;23.374;2022-07-06T15:04:11;8.55;;;4.22;;
28130;SDS011;15418;42.634;23.374;2022-07-06T15:06:36;12.00;;;3.40;;
28130;SDS011;15418;42.634;23.374;2022-07-06T15:09:02;7.45;;;3.15;;
28130;SDS011;15418;42.634;23.374;2022-07-06T15:11:32;37.65;;;3.58;;
28130;SDS011;15418;42.634;23.374;2022-07-06T15:13:58;7.30;;;2.67;;
28130;SDS011;15418;42.634;23.374;2022-07-06T15:16:23;4.47;;;2.65;;
28130;SDS011;15418;42.634;23.374;2022-07-06T15:18:49;10.18;;;2.75;;
28130;SDS011;15418;42.634;23.374;2022-07-06T15:21:15;4.50;;;2.78;;
28130;SDS011;15418;42.634;23.374;2022-07-06T15:23:40;6.40;;;3.20;;
28130;SDS011;15418;42.634;23.374;2022-07-06T15:26:06;3.50;;;2.60;;
28130;SDS011;15418;42.634;23.374;2022-07-06T15:28:32;8.15;;;3.10;;
28130;SDS011;15418;42.634;23.374;2022-07-06T15:30:57;2.97;;;2.40;;
28130;SDS011;15418;42.634;23.374;2022-07-06T15:33:23;5.40;;;2.55;;
28130;SDS011;15418;42.634;23.374;2022-07-06T15:35:48;7.95;;;3.00;;
28130;SDS011;15418;42.634;23.374;2022-07-06T15:38:14;7.50;;;2.60;;
28130;SDS011;15418;42.634;23.374;2022-07-06T15:40:40;12.95;;;3.40;;
28130;SDS011;15418;42.634;23.374;2022-07-06T15:43:09;18.45;;;2.90;;
28130;SDS011;15418;42.634;23.374;2022-07-06T15:45:35;3.22;;;2.40;;
28130;SDS011;15418;42.634;23.374;2022-07-06T15:48:00;7.93;;;2.95;;
28130;SDS011;15418;42.634;23.374;2022-07-06T15:50:26;8.05;;;2.60;;
28130;SDS011;15418;42.634;23.374;2022-07-06T15:52:51;8.98;;;3.28;;
28130;SDS011;15418;42.634;23.374;2022-07-06T15:55:17;8.40;;;2.50;;
28130;SDS011;15418;42.634;23.374;2022-07-06T15:57:42;7.45;;;2.15;;
28130;SDS011;15418;42.634;23.374;2022-07-06T16:00:08;5.43;;;2.65;;
28130;SDS011;15418;42.634;23.374;2022-07-06T16:02:34;3.40;;;2.80;;
28130;SDS011;15418;42.634;23.374;2022-07-06T16:04:59;5.85;;;2.47;;
28130;SDS011;15418;42.634;23.374;2022-07-06T16:07:24;10.68;;;2.13;;
28130;SDS011;15418;42.634;23.374;2022-07-06T16:09:51;3.88;;;2.15;;
28130;SDS011;15418;42.634;23.374;2022-07-06T16:12:16;5.32;;;2.10;;
28130;SDS011;15418;42.634;23.374;2022-07-06T16:14:42;6.18;;;2.30;;
28130;SDS011;15418;42.634;23.374;2022-07-06T16:17:07;8.45;;;2.17;;
28130;SDS011;15418;42.634;23.374;2022-07-06T16:19:32;2.83;;;2.20;;
28130;SDS011;15418;42.634;23.374;2022-07-06T16:21:58;5.95;;;2.20;;
28130;SDS011;15418;42.634;23.374;2022-07-06T16:24:24;6.60;;;2.03;;
28130;SDS011;15418;42.634;23.374;2022-07-06T16:26:49;11.50;;;2.53;;
28130;SDS011;15418;42.634;23.374;2022-07-06T16:29:14;6.07;;;2.40;;
28130;SDS011;15418;42.634;23.374;2022-07-06T16:31:40;6.10;;;2.10;;
28130;SDS011;15418;42.634;23.374;2022-07-06T16:34:06;5.78;;;2.20;;
28130;SDS011;15418;42.634;23.374;2022-07-06T16:36:31;9.95;;;2.13;;
28130;SDS011;15418;42.634;23.374;2022-07-06T16:38:57;5.22;;;2.83;;
28130;SDS011;15418;42.634;23.374;2022-07-06T16:41:22;9.38;;;2.53;;
28130;SDS011;15418;42.634;23.374;2022-07-06T16:43:48;4.72;;;2.17;;
28130;SDS011;15418;42.634;23.374;2022-07-06T16:46:14;3.70;;;2.63;;
28130;SDS011;15418;42.634;23.374;2022-07-06T16:48:40;9.10;;;2.70;;
28130;SDS011;15418;42.634;23.374;2022-07-06T16:51:05;3.67;;;2.30;;
28130;SDS011;15418;42.634;23.374;2022-07-06T16:53:31;5.63;;;2.40;;
28130;SDS011;15418;42.634;23.374;2022-07-06T16:55:57;8.10;;;2.45;;
28130;SDS011;15418;42.634;23.374;2022-07-06T16:58:22;11.32;;;2.30;;
28130;SDS011;15418;42.634;23.374;2022-07-06T17:00:48;5.63;;;2.25;;
28130;SDS011;15418;42.634;23.374;2022-07-06T17:03:13;3.95;;;2.00;;
28130;SDS011;15418;42.634;23.374;2022-07-06T17:05:39;3.78;;;2.45;;
28130;SDS011;15418;42.634;23.374;2022-07-06T17:08:04;4.28;;;2.53;;
28130;SDS011;15418;42.634;23.374;2022-07-06T17:10:30;5.05;;;2.40;;
28130;SDS011;15418;42.634;23.374;2022-07-06T17:12:55;7.07;;;2.53;;
28130;SDS011;15418;42.634;23.374;2022-07-06T17:15:21;7.40;;;2.58;;
28130;SDS011;15418;42.634;23.374;2022-07-06T17:17:47;7.82;;;2.85;;
28130;SDS011;15418;42.634;23.374;2022-07-06T17:20:12;6.15;;;2.78;;
28130;SDS011;15418;42.634;23.374;2022-07-06T17:22:38;5.68;;;2.88;;
28130;SDS011;15418;42.634;23.374;2022-07-06T17:25:04;10.15;;;2.92;;
28130;SDS011;15418;42.634;23.374;2022-07-06T17:27:30;4.43;;;2.70;;
28130;SDS011;15418;42.634;23.374;2022-07-06T17:29:55;5.60;;;2.90;;
28130;SDS011;15418;42.634;23.374;2022-07-06T17:32:21;6.57;;;2.65;;
28130;SDS011;15418;42.634;23.374;2022-07-06T17:34:46;5.90;;;2.50;;
28130;SDS011;15418;42.634;23.374;2022-07-06T17:37:12;8.93;;;2.72;;
28130;SDS011;15418;42.634;23.374;2022-07-06T17:39:38;8.52;;;3.28;;
28130;SDS011;15418;42.634;23.374;2022-07-06T17:42:03;9.38;;;3.72;;
28130;SDS011;15418;42.634;23.374;2022-07-06T17:44:29;9.13;;;3.83;;
28130;SDS011;15418;42.634;23.374;2022-07-06T17:46:55;7.43;;;2.95;;
28130;SDS011;15418;42.634;23.374;2022-07-06T17:49:21;6.60;;;3.65;;
28130;SDS011;15418;42.634;23.374;2022-07-06T17:51:46;9.15;;;3.10;;
28130;SDS011;15418;42.634;23.374;2022-07-06T17:54:12;8.55;;;4.10;;
28130;SDS011;15418;42.634;23.374;2022-07-06T17:56:37;6.63;;;3.83;;
28130;SDS011;15418;42.634;23.374;2022-07-06T17:59:03;8.02;;;4.13;;
28130;SDS011;15418;42.634;23.374;2022-07-06T18:01:29;5.00;;;2.67;;
28130;SDS011;15418;42.634;23.374;2022-07-06T18:03:54;5.03;;;2.95;;
28130;SDS011;15418;42.634;23.374;2022-07-06T18:06:20;6.10;;;3.10;;
28130;SDS011;15418;42.634;23.374;2022-07-06T18:08:45;10.50;;;3.40;;
28130;SDS011;15418;42.634;23.374;2022-07-06T18:11:11;9.90;;;4.20;;
28130;SDS011;15418;42.634;23.374;2022-07-06T18:13:40;6.82;;;2.85;;
28130;SDS011;15418;42.634;23.374;2022-07-06T18:16:06;8.98;;;5.30;;
28130;SDS011;15418;42.634;23.374;2022-07-06T18:18:32;4.40;;;2.97;;
28130;SDS011;15418;42.634;23.374;2022-07-06T18:20:58;9.27;;;2.58;;
28130;SDS011;15418;42.634;23.374;2022-07-06T18:23:24;8.95;;;2.58;;
28130;SDS011;15418;42.634;23.374;2022-07-06T18:25:51;8.48;;;3.30;;
28130;SDS011;15418;42.634;23.374;2022-07-06T18:28:17;3.20;;;2.50;;
28130;SDS011;15418;42.634;23.374;2022-07-06T18:30:44;3.90;;;2.40;;
28130;SDS011;15418;42.634;23.374;2022-07-06T18:33:09;10.80;;;2.70;;
28130;SDS011;15418;42.634;23.374;2022-07-06T18:35:35;9.70;;;3.22;;
28130;SDS011;15418;42.634;23.374;2022-07-06T18:38:01;6.03;;;2.47;;
28130;SDS011;15418;42.634;23.374;2022-07-06T18:40:27;10.02;;;3.40;;
28130;SDS011;15418;42.634;23.374;2022-07-06T18:42:53;6.78;;;3.72;;
28130;SDS011;15418;42.634;23.374;2022-07-06T18:45:19;5.63;;;2.83;;
28130;SDS011;15418;42.634;23.374;2022-07-06T18:47:44;6.00;;;3.38;;
28130;SDS011;15418;42.634;23.374;2022-07-06T18:50:11;9.80;;;4.13;;
28130;SDS011;15418;42.634;23.374;2022-07-06T18:52:37;6.75;;;3.88;;
28130;SDS011;15418;42.634;23.374;2022-07-06T18:55:03;5.18;;;3.33;;
28130;SDS011;15418;42.634;23.374;2022-07-06T18:57:29;3.80;;;3.00;;
28130;SDS011;15418;42.634;23.374;2022-07-06T18:59:56;7.50;;;3.75;;
28130;SDS011;15418;42.634;23.374;2022-07-06T19:02:22;7.97;;;3.50;;
28130;SDS011;15418;42.634;23.374;2022-07-06T19:04:48;7.25;;;3.38;;
28130;SDS011;15418;42.634;23.374;2022-07-06T19:07:13;4.55;;;3.50;;
28130;SDS011;15418;42.634;23.374;2022-07-06T19:09:39;9.32;;;4.28;;
28130;SDS011;15418;42.634;23.374;2022-07-06T19:12:05;12.02;;;5.07;;
28130;SDS011;15418;42.634;23.374;2022-07-06T19:14:30;11.57;;;3.85;;
28130;SDS011;15418;42.634;23.374;2022-07-06T19:16:56;7.13;;;4.13;;
28130;SDS011;15418;42.634;23.374;2022-07-06T19:19:21;6.40;;;4.45;;
28130;SDS011;15418;42.634;23.374;2022-07-06T19:21:47;9.18;;;4.25;;
28130;SDS011;15418;42.634;23.374;2022-07-06T19:24:15;10.00;;;5.15;;
28130;SDS011;15418;42.634;23.374;2022-07-06T19:26:40;9.18;;;5.88;;
28130;SDS011;15418;42.634;23.374;2022-07-06T19:29:06;7.15;;;4.30;;
28130;SDS011;15418;42.634;23.374;2022-07-06T19:31:31;10.20;;;6.47;;
28130;SDS011;15418;42.634;23.374;2022-07-06T19:33:57;5.85;;;5.32;;
28130;SDS011;15418;42.634;23.374;2022-07-06T19:36:22;5.05;;;4.65;;
28130;SDS011;15418;42.634;23.374;2022-07-06T19:38:48;14.32;;;5.20;;
28130;SDS011;15418;42.634;23.374;2022-07-06T19:41:13;7.03;;;6.20;;
28130;SDS011;15418;42.634;23.374;2022-07-06T19:43:41;9.88;;;8.65;;
28130;SDS011;15418;42.634;23.374;2022-07-06T19:46:07;7.32;;;5.20;;
28130;SDS011;15418;42.634;23.374;2022-07-06T19:48:34;7.97;;;5.78;;
28130;SDS011;15418;42.634;23.374;2022-07-06T19:51:01;9.10;;;7.35;;
28130;SDS011;15418;42.634;23.374;2022-07-06T19:53:28;10.63;;;5.75;;
28130;SDS011;15418;42.634;23.374;2022-07-06T19:55:56;9.90;;;6.60;;
28130;SDS011;15418;42.634;23.374;2022-07-06T19:58:22;10.40;;;6.32;;
28130;SDS011;15418;42.634;23.374;2022-07-06T20:00:49;8.07;;;6.70;;
28130;SDS011;15418;42.634;23.374;2022-07-06T20:03:17;9.95;;;6.38;;
28130;SDS011;15418;42.634;23.374;2022-07-06T20:05:43;11.05;;;7.72;;
28130;SDS011;15418;42.634;23.374;2022-07-06T20:08:09;18.55;;;11.52;;
28130;SDS011;15418;42.634;23.374;2022-07-06T20:10:35;11.70;;;6.78;;
28130;SDS011;15418;42.634;23.374;2022-07-06T20:13:00;9.40;;;7.10;;
28130;SDS011;15418;42.634;23.374;2022-07-06T20:15:29;12.98;;;8.10;;
28130;SDS011;15418;42.634;23.374;2022-07-06T20:17:55;9.60;;;6.95;;
28130;SDS011;15418;42.634;23.374;2022-07-06T20:20:20;7.55;;;5.70;;
28130;SDS011;15418;42.634;23.374;2022-07-06T20:22:46;10.48;;;5.80;;
28130;SDS011;15418;42.634;23.374;2022-07-06T20:25:11;6.10;;;5.50;;
28130;SDS011;15418;42.634;23.374;2022-07-06T20:27:37;6.68;;;5.35;;
28130;SDS011;15418;42.634;23.374;2022-07-06T20:30:03;8.65;;;5.75;;
28130;SDS011;15418;42.634;23.374;2022-07-06T20:32:29;12.57;;;6.15;;
28130;SDS011;15418;42.634;23.374;2022-07-06T20:34:54;6.93;;;5.80;;
28130;SDS011;15418;42.634;23.374;2022-07-06T20:37:20;7.10;;;6.10;;
28130;SDS011;15418;42.634;23.374;2022-07-06T20:39:45;9.60;;;6.50;;
28130;SDS011;15418;42.634;23.374;2022-07-06T20:42:11;8.85;;;5.85;;
28130;SDS011;15418;42.634;23.374;2022-07-06T20:44:36;7.15;;;6.03;;
28130;SDS011;15418;42.634;23.374;2022-07-06T20:47:02;7.53;;;6.50;;
28130;SDS011;15418;42.634;23.374;2022-07-06T20:49:27;7.07;;;6.38;;
28130;SDS011;15418;42.634;23.374;2022-07-06T20:51:53;9.80;;;7.53;;
28130;SDS011;15418;42.634;23.374;2022-07-06T20:54:18;7.68;;;5.45;;
28130;SDS011;15418;42.634;23.374;2022-07-06T20:56:44;5.90;;;5.30;;
28130;SDS011;15418;42.634;23.374;2022-07-06T20:59:10;8.50;;;5.65;;
28130;SDS011;15418;42.634;23.374;2022-07-06T21:01:35;8.93;;;5.85;;
28130;SDS011;15418;42.634;23.374;2022-07-06T21:04:02;6.80;;;5.43;;
28130;SDS011;15418;42.634;23.374;2022-07-06T21:06:27;7.15;;;4.90;;
28130;SDS011;15418;42.634;23.374;2022-07-06T21:08:53;9.48;;;6.18;;
28130;SDS011;15418;42.634;23.374;2022-07-06T21:11:19;5.43;;;4.40;;
28130;SDS011;15418;42.634;23.374;2022-07-06T21:13:44;5.18;;;4.70;;
28130;SDS011;15418;42.634;23.374;2022-07-06T21:16:10;4.97;;;4.47;;
28130;SDS011;15418;42.634;23.374;2022-07-06T21:18:36;8.13;;;3.78;;
28130;SDS011;15418;42.634;23.374;2022-07-06T21:21:01;6.03;;;4.20;;
28130;SDS011;15418;42.634;23.374;2022-07-06T21:23:27;7.10;;;4.85;;
28130;SDS011;15418;42.634;23.374;2022-07-06T21:25:52;7.38;;;5.50;;